sensor_id;sensor_type;location;lat;lon;timestamp;P1;durP1;ratioP1;P2;durP2;ratioP2
43998;SDS011;51319;52.162;5.302;2023-05-14T00:01:52;17.70;;;13.18;;
43998;SDS011;51319;52.162;5.302;2023-05-14T00:04:19;26.90;;;13.57;;
43998;SDS011;51319;52.162;5.302;2023-05-14T00:06:46;25.95;;;13.27;;
43998;SDS011;51319;52.162;5.302;2023-05-14T00:09:12;22.10;;;14.38;;
43998;SDS011;51319;52.162;5.302;2023-05-14T00:11:39;18.98;;;14.05;;
43998;SDS011;51319;52.162;5.302;2023-05-14T00:14:06;25.20;;;13.48;;
43998;SDS011;51319;52.162;5.302;2023-05-14T00:16:33;24.23;;;14.10;;
43998;SDS011;51319;52.162;5.302;2023-05-14T00:19:00;24.52;;;13.88;;
43998;SDS011;51319;52.162;5.302;2023-05-14T00:21:27;21.88;;;13.45;;
43998;SDS011;51319;52.162;5.302;2023-05-14T00:23:54;21.38;;;14.18;;
43998;SDS011;51319;52.162;5.302;2023-05-14T00:26:20;21.73;;;14.32;;
43998;SDS011;51319;52.162;5.302;2023-05-14T00:28:47;24.10;;;14.65;;
43998;SDS011;51319;52.162;5.302;2023-05-14T00:31:14;22.15;;;13.98;;
43998;SDS011;51319;52.162;5.302;2023-05-14T00:33:41;17.33;;;13.20;;
43998;SDS011;51319;52.162;5.302;2023-05-14T00:36:08;21.98;;;14.05;;
43998;SDS011;51319;52.162;5.302;2023-05-14T00:38:35;19.95;;;15.00;;
43998;SDS011;51319;52.162;5.302;2023-05-14T00:41:02;22.35;;;13.48;;
43998;SDS011;51319;52.162;5.302;2023-05-14T00:43:29;18.60;;;14.70;;
43998;SDS011;51319;52.162;5.302;2023-05-14T00:45:58;23.55;;;13.35;;
43998;SDS011;51319;52.162;5.302;2023-05-14T00:48:25;21.33;;;13.73;;
43998;SDS011;51319;52.162;5.302;2023-05-14T00:50:52;18.50;;;13.57;;
43998;SDS011;51319;52.162;5.302;2023-05-14T00:53:20;21.65;;;13.90;;
43998;SDS011;51319;52.162;5.302;2023-05-14T00:55:47;22.40;;;14.10;;
43998;SDS011;51319;52.162;5.302;2023-05-14T00:58:15;26.65;;;14.45;;
43998;SDS011;51319;52.162;5.302;2023-05-14T01:00:44;22.45;;;14.82;;
43998;SDS011;51319;52.162;5.302;2023-05-14T01:03:11;23.98;;;14.50;;
43998;SDS011;51319;52.162;5.302;2023-05-14T01:05:40;23.20;;;15.05;;
43998;SDS011;51319;52.162;5.302;2023-05-14T01:11:25;22.77;;;15.60;;
43998;SDS011;51319;52.162;5.302;2023-05-14T01:14:02;22.77;;;15.55;;
43998;SDS011;51319;52.162;5.302;2023-05-14T01:16:41;19.45;;;15.25;;
43998;SDS011;51319;52.162;5.302;2023-05-14T01:19:19;23.85;;;16.20;;
43998;SDS011;51319;52.162;5.302;2023-05-14T01:21:58;24.10;;;16.33;;
43998;SDS011;51319;52.162;5.302;2023-05-14T01:24:25;24.20;;;16.00;;
43998;SDS011;51319;52.162;5.302;2023-05-14T01:26:54;23.92;;;16.58;;
43998;SDS011;51319;52.162;5.302;2023-05-14T01:29:26;26.90;;;16.33;;
43998;SDS011;51319;52.162;5.302;2023-05-14T01:31:56;23.27;;;17.63;;
43998;SDS011;51319;52.162;5.302;2023-05-14T01:34:24;24.17;;;17.45;;
43998;SDS011;51319;52.162;5.302;2023-05-14T01:36:53;25.83;;;17.45;;
43998;SDS011;51319;52.162;5.302;2023-05-14T01:39:21;26.70;;;18.08;;
43998;SDS011;51319;52.162;5.302;2023-05-14T01:41:50;30.30;;;17.73;;
43998;SDS011;51319;52.162;5.302;2023-05-14T01:44:18;23.83;;;16.40;;
43998;SDS011;51319;52.162;5.302;2023-05-14T01:46:46;28.08;;;15.63;;
43998;SDS011;51319;52.162;5.302;2023-05-14T01:49:13;21.42;;;17.05;;
43998;SDS011;51319;52.162;5.302;2023-05-14T01:51:41;24.55;;;16.15;;
43998;SDS011;51319;52.162;5.302;2023-05-14T01:54:08;24.20;;;16.23;;
43998;SDS011;51319;52.162;5.302;2023-05-14T01:56:35;26.75;;;16.60;;
43998;SDS011;51319;52.162;5.302;2023-05-14T01:59:01;27.55;;;17.85;;
43998;SDS011;51319;52.162;5.302;2023-05-14T02:01:28;28.80;;;15.85;;
43998;SDS011;51319;52.162;5.302;2023-05-14T02:03:55;23.90;;;16.27;;
43998;SDS011;51319;52.162;5.302;2023-05-14T02:06:26;23.95;;;16.30;;
43998;SDS011;51319;52.162;5.302;2023-05-14T02:08:53;35.15;;;18.77;;
43998;SDS011;51319;52.162;5.302;2023-05-14T02:11:20;25.75;;;19.80;;
43998;SDS011;51319;52.162;5.302;2023-05-14T02:13:47;30.38;;;18.02;;
43998;SDS011;51319;52.162;5.302;2023-05-14T02:16:14;34.50;;;19.15;;
43998;SDS011;51319;52.162;5.302;2023-05-14T02:18:41;23.95;;;16.55;;
43998;SDS011;51319;52.162;5.302;2023-05-14T02:21:08;31.25;;;18.15;;
43998;SDS011;51319;52.162;5.302;2023-05-14T02:23:35;29.05;;;17.85;;
43998;SDS011;51319;52.162;5.302;2023-05-14T02:26:08;28.60;;;18.02;;
43998;SDS011;51319;52.162;5.302;2023-05-14T02:28:35;29.40;;;16.80;;
43998;SDS011;51319;52.162;5.302;2023-05-14T02:31:03;27.00;;;17.67;;
43998;SDS011;51319;52.162;5.302;2023-05-14T02:33:30;27.58;;;18.20;;
43998;SDS011;51319;52.162;5.302;2023-05-14T02:35:57;33.35;;;18.80;;
43998;SDS011;51319;52.162;5.302;2023-05-14T02:38:25;24.38;;;17.08;;
43998;SDS011;51319;52.162;5.302;2023-05-14T02:40:51;27.63;;;18.42;;
43998;SDS011;51319;52.162;5.302;2023-05-14T02:43:18;25.35;;;17.98;;
43998;SDS011;51319;52.162;5.302;2023-05-14T02:45:45;25.60;;;17.73;;
43998;SDS011;51319;52.162;5.302;2023-05-14T02:48:12;25.80;;;18.13;;
43998;SDS011;51319;52.162;5.302;2023-05-14T02:50:39;25.40;;;18.08;;
43998;SDS011;51319;52.162;5.302;2023-05-14T02:53:06;26.52;;;18.17;;
43998;SDS011;51319;52.162;5.302;2023-05-14T02:55:34;28.10;;;17.65;;
43998;SDS011;51319;52.162;5.302;2023-05-14T02:58:01;30.27;;;18.55;;
43998;SDS011;51319;52.162;5.302;2023-05-14T03:00:28;28.58;;;17.30;;
43998;SDS011;51319;52.162;5.302;2023-05-14T03:02:55;27.75;;;17.38;;
43998;SDS011;51319;52.162;5.302;2023-05-14T03:05:23;27.42;;;17.17;;
43998;SDS011;51319;52.162;5.302;2023-05-14T03:07:50;29.90;;;17.75;;
43998;SDS011;51319;52.162;5.302;2023-05-14T03:10:19;28.45;;;17.15;;
43998;SDS011;51319;52.162;5.302;2023-05-14T03:12:46;25.45;;;17.05;;
43998;SDS011;51319;52.162;5.302;2023-05-14T03:15:13;31.25;;;16.80;;
43998;SDS011;51319;52.162;5.302;2023-05-14T03:17:40;27.92;;;17.13;;
43998;SDS011;51319;52.162;5.302;2023-05-14T03:20:07;27.27;;;17.05;;
43998;SDS011;51319;52.162;5.302;2023-05-14T03:22:34;29.17;;;17.10;;
43998;SDS011;51319;52.162;5.302;2023-05-14T03:25:01;25.80;;;16.90;;
43998;SDS011;51319;52.162;5.302;2023-05-14T03:27:28;25.67;;;17.63;;
43998;SDS011;51319;52.162;5.302;2023-05-14T03:29:54;24.42;;;17.00;;
43998;SDS011;51319;52.162;5.302;2023-05-14T03:32:21;26.67;;;17.63;;
43998;SDS011;51319;52.162;5.302;2023-05-14T03:34:48;29.73;;;16.25;;
43998;SDS011;51319;52.162;5.302;2023-05-14T03:37:15;25.63;;;16.55;;
43998;SDS011;51319;52.162;5.302;2023-05-14T03:39:42;26.52;;;16.95;;
43998;SDS011;51319;52.162;5.302;2023-05-14T03:42:09;24.95;;;17.35;;
43998;SDS011;51319;52.162;5.302;2023-05-14T03:44:36;29.70;;;17.65;;
43998;SDS011;51319;52.162;5.302;2023-05-14T03:47:03;27.02;;;17.05;;
43998;SDS011;51319;52.162;5.302;2023-05-14T03:49:30;26.20;;;17.65;;
43998;SDS011;51319;52.162;5.302;2023-05-14T03:51:57;25.20;;;17.02;;
43998;SDS011;51319;52.162;5.302;2023-05-14T03:54:25;29.83;;;17.90;;
43998;SDS011;51319;52.162;5.302;2023-05-14T03:56:52;30.13;;;17.67;;
43998;SDS011;51319;52.162;5.302;2023-05-14T03:59:18;29.63;;;17.88;;
43998;SDS011;51319;52.162;5.302;2023-05-14T04:01:45;24.15;;;16.38;;
43998;SDS011;51319;52.162;5.302;2023-05-14T04:04:12;29.23;;;16.38;;
43998;SDS011;51319;52.162;5.302;2023-05-14T04:06:39;25.05;;;16.80;;
43998;SDS011;51319;52.162;5.302;2023-05-14T04:09:06;24.50;;;16.92;;
43998;SDS011;51319;52.162;5.302;2023-05-14T04:11:33;27.25;;;16.58;;
43998;SDS011;51319;52.162;5.302;2023-05-14T04:14:03;26.65;;;16.38;;
43998;SDS011;51319;52.162;5.302;2023-05-14T04:16:29;29.40;;;15.88;;
43998;SDS011;51319;52.162;5.302;2023-05-14T04:18:56;25.83;;;15.98;;
43998;SDS011;51319;52.162;5.302;2023-05-14T04:21:23;23.35;;;15.88;;
43998;SDS011;51319;52.162;5.302;2023-05-14T04:23:50;24.92;;;16.80;;
43998;SDS011;51319;52.162;5.302;2023-05-14T04:26:17;24.23;;;16.40;;
43998;SDS011;51319;52.162;5.302;2023-05-14T04:28:44;32.65;;;17.35;;
43998;SDS011;51319;52.162;5.302;2023-05-14T04:31:11;21.98;;;16.40;;
43998;SDS011;51319;52.162;5.302;2023-05-14T04:33:38;27.17;;;15.23;;
43998;SDS011;51319;52.162;5.302;2023-05-14T04:36:05;25.02;;;15.63;;
43998;SDS011;51319;52.162;5.302;2023-05-14T04:38:32;32.45;;;16.05;;
43998;SDS011;51319;52.162;5.302;2023-05-14T04:40:59;24.02;;;15.25;;
43998;SDS011;51319;52.162;5.302;2023-05-14T04:43:27;20.17;;;14.68;;
43998;SDS011;51319;52.162;5.302;2023-05-14T04:45:54;28.58;;;15.18;;
43998;SDS011;51319;52.162;5.302;2023-05-14T04:48:21;24.75;;;15.10;;
43998;SDS011;51319;52.162;5.302;2023-05-14T04:50:48;26.48;;;14.85;;
43998;SDS011;51319;52.162;5.302;2023-05-14T04:53:15;22.65;;;14.00;;
43998;SDS011;51319;52.162;5.302;2023-05-14T04:55:42;25.20;;;14.27;;
43998;SDS011;51319;52.162;5.302;2023-05-14T04:58:08;24.90;;;15.25;;
43998;SDS011;51319;52.162;5.302;2023-05-14T05:00:35;19.23;;;14.30;;
43998;SDS011;51319;52.162;5.302;2023-05-14T05:03:02;22.58;;;15.02;;
43998;SDS011;51319;52.162;5.302;2023-05-14T05:05:30;23.65;;;14.82;;
43998;SDS011;51319;52.162;5.302;2023-05-14T05:07:56;20.20;;;14.50;;
43998;SDS011;51319;52.162;5.302;2023-05-14T05:10:23;20.85;;;14.48;;
43998;SDS011;51319;52.162;5.302;2023-05-14T05:12:51;26.02;;;13.65;;
43998;SDS011;51319;52.162;5.302;2023-05-14T05:15:18;18.38;;;14.00;;
43998;SDS011;51319;52.162;5.302;2023-05-14T05:17:45;23.40;;;15.23;;
43998;SDS011;51319;52.162;5.302;2023-05-14T05:20:12;27.10;;;15.43;;
43998;SDS011;51319;52.162;5.302;2023-05-14T05:22:39;23.27;;;13.93;;
43998;SDS011;51319;52.162;5.302;2023-05-14T05:25:13;23.27;;;14.13;;
43998;SDS011;51319;52.162;5.302;2023-05-14T05:27:40;21.55;;;14.45;;
43998;SDS011;51319;52.162;5.302;2023-05-14T05:30:07;22.88;;;13.95;;
43998;SDS011;51319;52.162;5.302;2023-05-14T05:32:34;22.00;;;14.75;;
43998;SDS011;51319;52.162;5.302;2023-05-14T05:35:02;23.23;;;14.52;;
43998;SDS011;51319;52.162;5.302;2023-05-14T05:37:29;23.30;;;13.77;;
43998;SDS011;51319;52.162;5.302;2023-05-14T05:39:56;29.40;;;16.92;;
43998;SDS011;51319;52.162;5.302;2023-05-14T05:42:23;17.08;;;13.40;;
43998;SDS011;51319;52.162;5.302;2023-05-14T05:44:50;19.75;;;12.98;;
43998;SDS011;51319;52.162;5.302;2023-05-14T05:47:16;22.27;;;13.82;;
43998;SDS011;51319;52.162;5.302;2023-05-14T05:49:43;26.13;;;12.27;;
43998;SDS011;51319;52.162;5.302;2023-05-14T05:52:10;16.23;;;11.38;;
43998;SDS011;51319;52.162;5.302;2023-05-14T05:54:37;20.05;;;12.57;;
43998;SDS011;51319;52.162;5.302;2023-05-14T05:57:05;19.38;;;12.82;;
43998;SDS011;51319;52.162;5.302;2023-05-14T05:59:31;17.33;;;11.75;;
43998;SDS011;51319;52.162;5.302;2023-05-14T06:01:59;17.92;;;11.57;;
43998;SDS011;51319;52.162;5.302;2023-05-14T06:04:28;19.88;;;12.50;;
43998;SDS011;51319;52.162;5.302;2023-05-14T06:06:55;21.48;;;11.13;;
43998;SDS011;51319;52.162;5.302;2023-05-14T06:09:22;18.70;;;10.82;;
43998;SDS011;51319;52.162;5.302;2023-05-14T06:11:49;16.77;;;10.35;;
43998;SDS011;51319;52.162;5.302;2023-05-14T06:14:16;20.58;;;9.90;;
43998;SDS011;51319;52.162;5.302;2023-05-14T06:16:43;17.02;;;9.23;;
43998;SDS011;51319;52.162;5.302;2023-05-14T06:19:10;17.25;;;9.80;;
43998;SDS011;51319;52.162;5.302;2023-05-14T06:21:37;14.52;;;8.95;;
43998;SDS011;51319;52.162;5.302;2023-05-14T06:24:04;18.05;;;10.18;;
43998;SDS011;51319;52.162;5.302;2023-05-14T06:26:31;21.05;;;9.68;;
43998;SDS011;51319;52.162;5.302;2023-05-14T06:28:58;17.38;;;9.90;;
43998;SDS011;51319;52.162;5.302;2023-05-14T06:31:25;15.88;;;10.10;;
43998;SDS011;51319;52.162;5.302;2023-05-14T06:33:52;32.95;;;11.90;;
43998;SDS011;51319;52.162;5.302;2023-05-14T06:36:19;20.05;;;10.75;;
43998;SDS011;51319;52.162;5.302;2023-05-14T06:38:46;17.23;;;9.90;;
43998;SDS011;51319;52.162;5.302;2023-05-14T06:41:12;22.80;;;11.30;;
43998;SDS011;51319;52.162;5.302;2023-05-14T06:43:39;23.50;;;11.07;;
43998;SDS011;51319;52.162;5.302;2023-05-14T06:46:06;18.52;;;11.23;;
43998;SDS011;51319;52.162;5.302;2023-05-14T06:48:33;17.50;;;11.13;;
43998;SDS011;51319;52.162;5.302;2023-05-14T06:51:00;15.52;;;9.95;;
43998;SDS011;51319;52.162;5.302;2023-05-14T06:53:28;22.00;;;12.35;;
43998;SDS011;51319;52.162;5.302;2023-05-14T06:55:55;14.50;;;10.32;;
43998;SDS011;51319;52.162;5.302;2023-05-14T06:58:22;17.85;;;11.07;;
43998;SDS011;51319;52.162;5.302;2023-05-14T07:00:49;14.65;;;10.82;;
43998;SDS011;51319;52.162;5.302;2023-05-14T07:03:16;17.58;;;11.90;;
43998;SDS011;51319;52.162;5.302;2023-05-14T07:05:43;22.33;;;12.52;;
43998;SDS011;51319;52.162;5.302;2023-05-14T07:08:11;27.73;;;12.93;;
43998;SDS011;51319;52.162;5.302;2023-05-14T07:10:38;20.15;;;11.73;;
43998;SDS011;51319;52.162;5.302;2023-05-14T07:13:06;27.80;;;11.00;;
43998;SDS011;51319;52.162;5.302;2023-05-14T07:15:33;14.02;;;10.48;;
43998;SDS011;51319;52.162;5.302;2023-05-14T07:18:00;15.98;;;10.90;;
43998;SDS011;51319;52.162;5.302;2023-05-14T07:20:27;18.45;;;11.38;;
43998;SDS011;51319;52.162;5.302;2023-05-14T07:22:54;20.83;;;11.32;;
43998;SDS011;51319;52.162;5.302;2023-05-14T07:25:21;18.38;;;10.65;;
43998;SDS011;51319;52.162;5.302;2023-05-14T07:27:48;13.45;;;9.65;;
43998;SDS011;51319;52.162;5.302;2023-05-14T07:30:15;18.33;;;10.45;;
43998;SDS011;51319;52.162;5.302;2023-05-14T07:32:42;13.20;;;9.32;;
43998;SDS011;51319;52.162;5.302;2023-05-14T07:35:09;16.13;;;9.05;;
43998;SDS011;51319;52.162;5.302;2023-05-14T07:37:37;15.00;;;8.98;;
43998;SDS011;51319;52.162;5.302;2023-05-14T07:40:04;16.27;;;8.80;;
43998;SDS011;51319;52.162;5.302;2023-05-14T07:42:31;15.57;;;7.82;;
43998;SDS011;51319;52.162;5.302;2023-05-14T07:45:02;12.75;;;7.38;;
43998;SDS011;51319;52.162;5.302;2023-05-14T07:47:30;14.63;;;7.60;;
43998;SDS011;51319;52.162;5.302;2023-05-14T07:49:58;10.52;;;7.03;;
43998;SDS011;51319;52.162;5.302;2023-05-14T07:52:27;10.57;;;6.80;;
43998;SDS011;51319;52.162;5.302;2023-05-14T07:54:54;12.63;;;6.97;;
43998;SDS011;51319;52.162;5.302;2023-05-14T07:57:21;15.75;;;6.93;;
43998;SDS011;51319;52.162;5.302;2023-05-14T07:59:49;16.30;;;7.25;;
43998;SDS011;51319;52.162;5.302;2023-05-14T08:02:16;16.45;;;6.30;;
43998;SDS011;51319;52.162;5.302;2023-05-14T08:04:44;18.50;;;5.63;;
43998;SDS011;51319;52.162;5.302;2023-05-14T08:07:11;11.50;;;5.35;;
43998;SDS011;51319;52.162;5.302;2023-05-14T08:09:38;11.38;;;5.53;;
43998;SDS011;51319;52.162;5.302;2023-05-14T08:12:05;13.45;;;5.53;;
43998;SDS011;51319;52.162;5.302;2023-05-14T08:14:32;9.00;;;4.47;;
43998;SDS011;51319;52.162;5.302;2023-05-14T08:17:00;13.50;;;5.43;;
43998;SDS011;51319;52.162;5.302;2023-05-14T08:19:27;11.63;;;4.88;;
43998;SDS011;51319;52.162;5.302;2023-05-14T08:21:54;11.52;;;4.20;;
43998;SDS011;51319;52.162;5.302;2023-05-14T08:24:21;10.93;;;4.50;;
43998;SDS011;51319;52.162;5.302;2023-05-14T08:26:48;9.65;;;3.95;;
43998;SDS011;51319;52.162;5.302;2023-05-14T08:29:15;10.77;;;4.30;;
43998;SDS011;51319;52.162;5.302;2023-05-14T08:31:42;11.85;;;4.05;;
43998;SDS011;51319;52.162;5.302;2023-05-14T08:34:09;12.63;;;3.85;;
43998;SDS011;51319;52.162;5.302;2023-05-14T08:36:37;7.45;;;3.92;;
43998;SDS011;51319;52.162;5.302;2023-05-14T08:39:04;9.10;;;3.75;;
43998;SDS011;51319;52.162;5.302;2023-05-14T08:41:33;15.50;;;5.18;;
43998;SDS011;51319;52.162;5.302;2023-05-14T08:44:13;11.82;;;4.10;;
43998;SDS011;51319;52.162;5.302;2023-05-14T08:46:53;11.80;;;4.05;;
43998;SDS011;51319;52.162;5.302;2023-05-14T08:51:58;10.02;;;3.60;;
43998;SDS011;51319;52.162;5.302;2023-05-14T08:54:25;11.45;;;3.42;;
43998;SDS011;51319;52.162;5.302;2023-05-14T08:56:57;15.50;;;4.00;;
43998;SDS011;51319;52.162;5.302;2023-05-14T08:59:24;11.70;;;3.83;;
43998;SDS011;51319;52.162;5.302;2023-05-14T09:01:52;8.18;;;2.90;;
43998;SDS011;51319;52.162;5.302;2023-05-14T09:04:20;10.98;;;3.55;;
43998;SDS011;51319;52.162;5.302;2023-05-14T09:06:49;8.05;;;3.33;;
43998;SDS011;51319;52.162;5.302;2023-05-14T09:09:18;18.50;;;4.00;;
43998;SDS011;51319;52.162;5.302;2023-05-14T09:11:50;24.45;;;4.75;;
43998;SDS011;51319;52.162;5.302;2023-05-14T09:14:18;9.90;;;3.40;;
43998;SDS011;51319;52.162;5.302;2023-05-14T09:16:46;13.98;;;3.63;;
43998;SDS011;51319;52.162;5.302;2023-05-14T09:19:15;11.50;;;3.50;;
43998;SDS011;51319;52.162;5.302;2023-05-14T09:21:45;7.15;;;2.85;;
43998;SDS011;51319;52.162;5.302;2023-05-14T09:24:25;9.50;;;3.30;;
43998;SDS011;51319;52.162;5.302;2023-05-14T09:27:18;7.63;;;3.25;;
43998;SDS011;51319;52.162;5.302;2023-05-14T09:29:46;13.07;;;3.25;;
43998;SDS011;51319;52.162;5.302;2023-05-14T09:32:13;8.57;;;3.08;;
43998;SDS011;51319;52.162;5.302;2023-05-14T09:34:40;8.70;;;3.20;;
43998;SDS011;51319;52.162;5.302;2023-05-14T09:37:07;15.75;;;3.47;;
43998;SDS011;51319;52.162;5.302;2023-05-14T09:39:35;14.48;;;3.13;;
43998;SDS011;51319;52.162;5.302;2023-05-14T09:42:03;13.38;;;2.80;;
43998;SDS011;51319;52.162;5.302;2023-05-14T09:44:33;11.15;;;3.60;;
43998;SDS011;51319;52.162;5.302;2023-05-14T09:47:01;9.13;;;3.38;;
43998;SDS011;51319;52.162;5.302;2023-05-14T09:49:30;11.70;;;3.28;;
43998;SDS011;51319;52.162;5.302;2023-05-14T09:51:57;7.45;;;3.30;;
43998;SDS011;51319;52.162;5.302;2023-05-14T09:54:26;11.57;;;3.28;;
43998;SDS011;51319;52.162;5.302;2023-05-14T09:56:53;11.90;;;3.70;;
43998;SDS011;51319;52.162;5.302;2023-05-14T09:59:21;11.50;;;3.38;;
43998;SDS011;51319;52.162;5.302;2023-05-14T10:01:48;9.73;;;3.03;;
43998;SDS011;51319;52.162;5.302;2023-05-14T10:04:16;12.15;;;3.17;;
43998;SDS011;51319;52.162;5.302;2023-05-14T10:06:44;10.90;;;3.47;;
43998;SDS011;51319;52.162;5.302;2023-05-14T10:09:17;8.50;;;3.55;;
43998;SDS011;51319;52.162;5.302;2023-05-14T10:11:55;10.65;;;3.25;;
43998;SDS011;51319;52.162;5.302;2023-05-14T10:14:28;8.00;;;3.25;;
43998;SDS011;51319;52.162;5.302;2023-05-14T10:17:01;8.52;;;3.38;;
43998;SDS011;51319;52.162;5.302;2023-05-14T10:19:31;15.00;;;3.25;;
43998;SDS011;51319;52.162;5.302;2023-05-14T10:22:04;8.82;;;3.35;;
43998;SDS011;51319;52.162;5.302;2023-05-14T10:24:36;10.95;;;3.58;;
43998;SDS011;51319;52.162;5.302;2023-05-14T10:27:04;9.82;;;2.70;;
43998;SDS011;51319;52.162;5.302;2023-05-14T10:29:35;6.53;;;3.00;;
43998;SDS011;51319;52.162;5.302;2023-05-14T10:32:04;13.75;;;3.40;;
43998;SDS011;51319;52.162;5.302;2023-05-14T10:34:40;10.02;;;2.83;;
43998;SDS011;51319;52.162;5.302;2023-05-14T10:37:20;7.35;;;2.80;;
43998;SDS011;51319;52.162;5.302;2023-05-14T10:39:52;9.18;;;2.67;;
43998;SDS011;51319;52.162;5.302;2023-05-14T10:42:32;9.65;;;2.55;;
43998;SDS011;51319;52.162;5.302;2023-05-14T10:45:03;11.05;;;3.10;;
43998;SDS011;51319;52.162;5.302;2023-05-14T10:47:36;9.10;;;2.72;;
43998;SDS011;51319;52.162;5.302;2023-05-14T10:50:11;7.90;;;2.90;;
43998;SDS011;51319;52.162;5.302;2023-05-14T10:52:40;6.10;;;2.90;;
43998;SDS011;51319;52.162;5.302;2023-05-14T10:55:11;8.27;;;3.10;;
43998;SDS011;51319;52.162;5.302;2023-05-14T10:57:41;15.73;;;3.00;;
43998;SDS011;51319;52.162;5.302;2023-05-14T11:00:09;9.30;;;3.25;;
43998;SDS011;51319;52.162;5.302;2023-05-14T11:02:39;6.78;;;2.60;;
43998;SDS011;51319;52.162;5.302;2023-05-14T11:05:08;6.40;;;2.72;;
43998;SDS011;51319;52.162;5.302;2023-05-14T11:07:45;8.52;;;2.90;;
43998;SDS011;51319;52.162;5.302;2023-05-14T11:10:14;6.35;;;2.50;;
43998;SDS011;51319;52.162;5.302;2023-05-14T11:12:48;9.13;;;2.95;;
43998;SDS011;51319;52.162;5.302;2023-05-14T11:15:17;5.22;;;2.72;;
43998;SDS011;51319;52.162;5.302;2023-05-14T11:17:46;8.43;;;2.93;;
43998;SDS011;51319;52.162;5.302;2023-05-14T11:20:15;10.48;;;3.10;;
43998;SDS011;51319;52.162;5.302;2023-05-14T11:22:44;9.38;;;2.67;;
43998;SDS011;51319;52.162;5.302;2023-05-14T11:25:12;9.65;;;2.97;;
43998;SDS011;51319;52.162;5.302;2023-05-14T11:27:41;12.40;;;3.08;;
43998;SDS011;51319;52.162;5.302;2023-05-14T11:30:18;9.10;;;3.17;;
43998;SDS011;51319;52.162;5.302;2023-05-14T11:32:46;9.32;;;2.67;;
43998;SDS011;51319;52.162;5.302;2023-05-14T11:35:14;11.68;;;2.78;;
43998;SDS011;51319;52.162;5.302;2023-05-14T11:37:42;9.50;;;3.28;;
43998;SDS011;51319;52.162;5.302;2023-05-14T11:40:15;11.23;;;3.05;;
43998;SDS011;51319;52.162;5.302;2023-05-14T11:42:43;12.07;;;3.10;;
43998;SDS011;51319;52.162;5.302;2023-05-14T11:45:11;7.80;;;3.20;;
43998;SDS011;51319;52.162;5.302;2023-05-14T11:47:39;9.10;;;2.97;;
43998;SDS011;51319;52.162;5.302;2023-05-14T11:50:07;6.53;;;2.95;;
43998;SDS011;51319;52.162;5.302;2023-05-14T11:52:38;6.90;;;2.63;;
43998;SDS011;51319;52.162;5.302;2023-05-14T11:55:09;10.18;;;3.22;;
43998;SDS011;51319;52.162;5.302;2023-05-14T11:57:37;8.63;;;3.38;;
43998;SDS011;51319;52.162;5.302;2023-05-14T12:00:06;14.32;;;3.00;;
43998;SDS011;51319;52.162;5.302;2023-05-14T12:02:41;9.73;;;3.03;;
43998;SDS011;51319;52.162;5.302;2023-05-14T12:05:11;14.55;;;3.40;;
43998;SDS011;51319;52.162;5.302;2023-05-14T12:07:38;9.95;;;3.03;;
43998;SDS011;51319;52.162;5.302;2023-05-14T12:10:05;6.20;;;2.42;;
43998;SDS011;51319;52.162;5.302;2023-05-14T12:12:33;9.30;;;2.97;;
43998;SDS011;51319;52.162;5.302;2023-05-14T12:15:13;7.22;;;2.63;;
43998;SDS011;51319;52.162;5.302;2023-05-14T12:17:42;8.50;;;2.75;;
43998;SDS011;51319;52.162;5.302;2023-05-14T12:20:16;7.43;;;2.88;;
43998;SDS011;51319;52.162;5.302;2023-05-14T12:22:43;8.73;;;3.47;;
43998;SDS011;51319;52.162;5.302;2023-05-14T12:25:10;10.45;;;2.92;;
43998;SDS011;51319;52.162;5.302;2023-05-14T12:27:43;10.93;;;3.40;;
43998;SDS011;51319;52.162;5.302;2023-05-14T12:30:11;10.32;;;3.15;;
43998;SDS011;51319;52.162;5.302;2023-05-14T12:32:47;9.80;;;3.20;;
43998;SDS011;51319;52.162;5.302;2023-05-14T12:35:17;9.55;;;3.53;;
43998;SDS011;51319;52.162;5.302;2023-05-14T12:37:44;8.98;;;2.75;;
43998;SDS011;51319;52.162;5.302;2023-05-14T12:40:11;10.13;;;2.97;;
43998;SDS011;51319;52.162;5.302;2023-05-14T12:42:38;10.50;;;2.90;;
43998;SDS011;51319;52.162;5.302;2023-05-14T12:45:05;9.77;;;3.15;;
43998;SDS011;51319;52.162;5.302;2023-05-14T12:47:34;7.60;;;2.88;;
43998;SDS011;51319;52.162;5.302;2023-05-14T12:50:02;7.90;;;3.08;;
43998;SDS011;51319;52.162;5.302;2023-05-14T12:52:31;11.52;;;3.50;;
43998;SDS011;51319;52.162;5.302;2023-05-14T12:55:06;11.18;;;3.08;;
43998;SDS011;51319;52.162;5.302;2023-05-14T12:57:34;9.32;;;3.13;;
43998;SDS011;51319;52.162;5.302;2023-05-14T13:00:03;8.52;;;2.40;;
43998;SDS011;51319;52.162;5.302;2023-05-14T13:02:36;8.50;;;3.13;;
43998;SDS011;51319;52.162;5.302;2023-05-14T13:05:08;7.63;;;2.50;;
43998;SDS011;51319;52.162;5.302;2023-05-14T13:07:36;5.25;;;2.80;;
43998;SDS011;51319;52.162;5.302;2023-05-14T13:10:04;6.22;;;2.50;;
43998;SDS011;51319;52.162;5.302;2023-05-14T13:12:31;7.65;;;3.40;;
43998;SDS011;51319;52.162;5.302;2023-05-14T13:14:58;10.82;;;3.33;;
43998;SDS011;51319;52.162;5.302;2023-05-14T13:17:25;7.60;;;2.58;;
43998;SDS011;51319;52.162;5.302;2023-05-14T13:19:52;10.25;;;2.80;;
43998;SDS011;51319;52.162;5.302;2023-05-14T13:22:19;6.43;;;2.85;;
43998;SDS011;51319;52.162;5.302;2023-05-14T13:24:46;12.70;;;3.15;;
43998;SDS011;51319;52.162;5.302;2023-05-14T13:27:13;7.18;;;2.75;;
43998;SDS011;51319;52.162;5.302;2023-05-14T13:29:40;9.70;;;3.10;;
43998;SDS011;51319;52.162;5.302;2023-05-14T13:32:07;7.05;;;2.95;;
43998;SDS011;51319;52.162;5.302;2023-05-14T13:34:34;9.90;;;2.72;;
43998;SDS011;51319;52.162;5.302;2023-05-14T13:37:01;12.48;;;3.45;;
43998;SDS011;51319;52.162;5.302;2023-05-14T13:39:29;7.53;;;2.78;;
43998;SDS011;51319;52.162;5.302;2023-05-14T13:41:56;8.25;;;2.72;;
43998;SDS011;51319;52.162;5.302;2023-05-14T13:44:23;8.32;;;3.33;;
43998;SDS011;51319;52.162;5.302;2023-05-14T13:46:50;10.70;;;2.97;;
43998;SDS011;51319;52.162;5.302;2023-05-14T13:49:17;8.70;;;3.38;;
43998;SDS011;51319;52.162;5.302;2023-05-14T13:51:44;12.70;;;3.05;;
43998;SDS011;51319;52.162;5.302;2023-05-14T13:54:11;11.65;;;3.30;;
43998;SDS011;51319;52.162;5.302;2023-05-14T13:56:38;9.07;;;3.38;;
43998;SDS011;51319;52.162;5.302;2023-05-14T13:59:05;13.25;;;3.38;;
43998;SDS011;51319;52.162;5.302;2023-05-14T14:01:32;12.45;;;3.75;;
43998;SDS011;51319;52.162;5.302;2023-05-14T14:03:59;7.70;;;2.88;;
43998;SDS011;51319;52.162;5.302;2023-05-14T14:06:26;12.27;;;3.55;;
43998;SDS011;51319;52.162;5.302;2023-05-14T14:08:56;11.32;;;3.63;;
43998;SDS011;51319;52.162;5.302;2023-05-14T14:11:29;9.05;;;3.28;;
43998;SDS011;51319;52.162;5.302;2023-05-14T14:13:56;9.63;;;3.60;;
43998;SDS011;51319;52.162;5.302;2023-05-14T14:16:24;7.80;;;3.25;;
43998;SDS011;51319;52.162;5.302;2023-05-14T14:18:51;8.77;;;3.40;;
43998;SDS011;51319;52.162;5.302;2023-05-14T14:21:18;11.77;;;3.92;;
43998;SDS011;51319;52.162;5.302;2023-05-14T14:23:47;14.80;;;4.15;;
43998;SDS011;51319;52.162;5.302;2023-05-14T14:26:14;14.75;;;4.38;;
43998;SDS011;51319;52.162;5.302;2023-05-14T14:28:43;8.55;;;3.58;;
43998;SDS011;51319;52.162;5.302;2023-05-14T14:31:13;8.75;;;3.40;;
43998;SDS011;51319;52.162;5.302;2023-05-14T14:33:41;9.18;;;2.92;;
43998;SDS011;51319;52.162;5.302;2023-05-14T14:36:11;8.80;;;3.58;;
43998;SDS011;51319;52.162;5.302;2023-05-14T14:38:38;12.18;;;3.55;;
43998;SDS011;51319;52.162;5.302;2023-05-14T14:41:07;10.73;;;3.50;;
43998;SDS011;51319;52.162;5.302;2023-05-14T14:43:36;10.52;;;3.53;;